Time;durP1;ratioP1;P1;durP2;ratioP2;P2;SDS_P1;SDS_P2;PMS_P1;PMS_P2;Temp;Humidity;BMP_temperature;BMP_pressure;BME280_temperature;BME280_humidity;BME280_pressure;Samples;Min_cycle;Max_cycle;Signal;HPM_P1;HPM_P2
2021/03/29 00:02:14;;;;;;;130.93;71.55;;;8.90;88.60;;;;;;5098280;28;20494;-78
2021/03/29 00:04:40;;;;;;;107.50;60.28;;;8.90;89.00;;;;;;5099540;28;20107;-71
2021/03/29 00:07:08;;;;;;;104.38;58.80;;;8.80;89.40;;;;;;5099145;28;20497;-71
2021/03/29 00:09:36;;;;;;;105.80;59.30;;;8.90;90.20;;;;;;5099804;28;20024;-71
2021/03/29 00:12:04;;;;;;;97.50;57.30;;;9.00;90.20;;;;;;5082142;28;20020;-71
2021/03/29 00:14:31;;;;;;;143.15;74.53;;;8.90;89.40;;;;;;5099734;28;20081;-71
2021/03/29 00:16:57;;;;;;;95.20;55.90;;;8.90;89.90;;;;;;5082113;28;20615;-70
2021/03/29 00:19:27;;;;;;;91.95;54.35;;;8.90;89.90;;;;;;5099455;28;20027;-70
2021/03/29 00:21:53;;;;;;;93.55;55.42;;;8.90;90.00;;;;;;5099255;28;20415;-70
2021/03/29 00:24:21;;;;;;;102.85;59.65;;;8.80;90.30;;;;;;5081178;28;20020;-79
2021/03/29 00:26:47;;;;;;;107.65;61.05;;;8.60;90.60;;;;;;5099031;28;20032;-74
2021/03/29 00:29:13;;;;;;;104.18;61.22;;;8.60;90.90;;;;;;5098814;28;20020;-74
2021/03/29 00:31:40;;;;;;;105.85;61.33;;;8.60;91.00;;;;;;5099419;28;20020;-78
2021/03/29 00:34:07;;;;;;;100.40;58.10;;;8.70;90.90;;;;;;5099031;28;20054;-70
2021/03/29 00:36:34;;;;;;;108.10;61.33;;;8.80;90.90;;;;;;5098721;28;20028;-69
2021/03/29 00:39:01;;;;;;;105.75;61.67;;;8.70;91.20;;;;;;5100315;28;20016;-75
2021/03/29 00:41:27;;;;;;;110.22;63.08;;;8.70;90.90;;;;;;5098889;28;20008;-74
2021/03/29 00:43:54;;;;;;;109.10;63.03;;;8.60;90.90;;;;;;5097865;28;20020;-76
2021/03/29 00:46:22;;;;;;;116.07;67.30;;;8.60;91.00;;;;;;5098989;28;20038;-77
2021/03/29 00:48:50;;;;;;;116.85;69.95;;;8.60;90.90;;;;;;5099747;28;20470;-77
2021/03/29 00:51:28;;;;;;;121.70;68.78;;;8.50;91.30;;;;;;5098656;28;20012;-69
2021/03/29 00:53:57;;;;;;;117.20;67.78;;;8.50;91.50;;;;;;5098822;28;20034;-69
2021/03/29 00:56:25;;;;;;;110.80;64.65;;;8.40;91.60;;;;;;5096996;28;20024;-74
2021/03/29 00:58:52;;;;;;;113.15;65.88;;;8.40;91.40;;;;;;5098632;28;20028;-69
2021/03/29 01:01:22;;;;;;;116.35;65.85;;;8.40;91.70;;;;;;5099044;28;20535;-69
2021/03/29 01:03:51;;;;;;;114.05;65.90;;;8.30;91.70;;;;;;5099081;28;20389;-76
2021/03/29 01:06:19;;;;;;;117.60;67.78;;;8.30;91.70;;;;;;5080922;28;20028;-76
2021/03/29 01:09:11;;;;;;;112.50;66.68;;;8.10;92.10;;;;;;5099439;28;20102;-70
2021/03/29 01:11:59;;;;;;;120.43;69.13;;;8.20;92.30;;;;;;5080977;28;20035;-73
2021/03/29 01:14:36;;;;;;;125.53;72.70;;;8.10;92.50;;;;;;5099413;28;20032;-70
2021/03/29 01:17:28;;;;;;;128.40;69.50;;;8.10;92.50;;;;;;5099631;28;20048;-69
2021/03/29 01:20:03;;;;;;;118.38;64.70;;;8.00;92.90;;;;;;5098940;28;20036;-72
2021/03/29 01:22:48;;;;;;;121.22;65.95;;;8.00;93.10;;;;;;5098929;28;20024;-71
2021/03/29 01:25:34;;;;;;;115.93;64.88;;;8.00;93.00;;;;;;5098076;28;20104;-70
2021/03/29 01:28:08;;;;;;;111.03;64.93;;;8.00;93.40;;;;;;5098834;28;20099;-72
2021/03/29 01:30:37;;;;;;;112.43;63.15;;;7.90;93.00;;;;;;5098100;28;20107;-70
2021/03/29 01:33:04;;;;;;;107.70;64.90;;;7.90;93.20;;;;;;5098670;28;20057;-70
2021/03/29 01:35:33;;;;;;;102.18;58.50;;;7.90;93.20;;;;;;5098123;28;20027;-75
2021/03/29 01:38:01;;;;;;;83.90;50.05;;;7.80;93.50;;;;;;5098476;28;20045;-73
2021/03/29 01:40:27;;;;;;;84.00;48.20;;;7.70;93.70;;;;;;5099098;28;20024;-77
2021/03/29 01:42:54;;;;;;;84.07;47.85;;;7.70;93.90;;;;;;5096851;28;20022;-69
2021/03/29 01:45:21;;;;;;;81.30;49.53;;;7.70;93.80;;;;;;5098001;28;20031;-78
2021/03/29 01:47:48;;;;;;;84.93;49.80;;;7.60;94.00;;;;;;5097967;28;20020;-72
2021/03/29 01:50:21;;;;;;;84.30;49.72;;;7.60;93.80;;;;;;5097787;28;20024;-76
2021/03/29 01:52:47;;;;;;;84.82;50.20;;;7.60;93.70;;;;;;5079376;28;20031;-69
2021/03/29 01:55:14;;;;;;;93.70;53.50;;;7.60;93.90;;;;;;5096741;28;20031;-80
2021/03/29 01:57:40;;;;;;;94.47;54.30;;;7.40;94.00;;;;;;5096167;28;20031;-77
2021/03/29 02:00:15;;;;;;;96.57;56.15;;;7.40;94.30;;;;;;5096523;28;20020;-70
2021/03/29 02:02:42;;;;;;;99.05;55.88;;;7.40;94.40;;;;;;5096380;28;20059;-74
2021/03/29 02:05:11;;;;;;;90.70;51.65;;;7.40;94.30;;;;;;5097670;28;20035;-72
2021/03/29 02:07:39;;;;;;;111.88;60.67;;;7.40;94.40;;;;;;5099516;28;20077;-73
2021/03/29 02:10:21;;;;;;;91.35;51.97;;;7.30;94.00;;;;;;5101747;28;20077;-79
2021/03/29 02:12:47;;;;;;;89.13;50.20;;;7.30;94.10;;;;;;5103249;28;20335;-73
2021/03/29 02:15:18;;;;;;;83.97;46.60;;;7.20;94.40;;;;;;5101933;28;20024;-73
2021/03/29 02:17:45;;;;;;;84.75;45.10;;;7.20;94.60;;;;;;5102733;28;20035;-77
2021/03/29 02:20:15;;;;;;;71.78;42.03;;;7.10;94.30;;;;;;5100522;28;20493;-71
2021/03/29 02:22:49;;;;;;;64.72;39.42;;;7.00;94.30;;;;;;5101684;28;20517;-75
2021/03/29 02:25:18;;;;;;;61.47;37.90;;;6.90;94.70;;;;;;5101390;28;20115;-79
2021/03/29 02:27:47;;;;;;;51.22;31.45;;;6.80;94.90;;;;;;5099543;28;20024;-79
2021/03/29 02:30:20;;;;;;;54.50;32.42;;;6.60;95.40;;;;;;5082172;28;20047;-78
2021/03/29 02:32:47;;;;;;;53.83;31.17;;;6.50;95.70;;;;;;5099547;28;20027;-69
2021/03/29 02:35:15;;;;;;;50.13;29.98;;;6.50;95.70;;;;;;5099458;28;20106;-79
2021/03/29 02:37:48;;;;;;;49.67;29.00;;;6.60;95.70;;;;;;5099975;28;20027;-70
2021/03/29 02:40:16;;;;;;;52.55;30.73;;;6.60;96.00;;;;;;5102227;28;20007;-75
2021/03/29 02:42:43;;;;;;;54.70;30.65;;;6.40;96.00;;;;;;5101684;28;20373;-70
2021/03/29 02:45:10;;;;;;;52.13;29.38;;;6.30;96.40;;;;;;5101070;28;20013;-70
2021/03/29 02:47:42;;;;;;;51.20;28.98;;;6.40;96.40;;;;;;5101681;28;20050;-78
2021/03/29 02:50:15;;;;;;;48.97;28.52;;;6.50;96.30;;;;;;5082916;28;20473;-73
2021/03/29 02:52:44;;;;;;;47.55;27.48;;;6.50;96.30;;;;;;5082858;28;20028;-70
2021/03/29 02:55:13;;;;;;;43.90;26.25;;;6.60;96.20;;;;;;5101389;28;20058;-69
2021/03/29 02:57:42;;;;;;;47.00;27.92;;;6.50;96.20;;;;;;5100735;28;20032;-69
2021/03/29 03:00:10;;;;;;;47.13;26.30;;;6.50;96.00;;;;;;5101878;28;20028;-69
2021/03/29 03:02:36;;;;;;;50.15;28.60;;;6.60;96.20;;;;;;5100099;28;20052;-75
2021/03/29 03:05:07;;;;;;;48.45;27.85;;;6.40;96.50;;;;;;5101468;28;20080;-73
2021/03/29 03:07:37;;;;;;;50.28;27.30;;;6.40;96.40;;;;;;5101461;28;20065;-74
2021/03/29 03:10:11;;;;;;;44.53;27.63;;;6.40;96.60;;;;;;5101483;28;20036;-77
2021/03/29 03:12:47;;;;;;;46.40;27.43;;;6.40;96.50;;;;;;5100524;28;20024;-76
2021/03/29 03:15:18;;;;;;;56.47;32.47;;;6.40;96.20;;;;;;5100829;28;20024;-70
2021/03/29 03:17:45;;;;;;;47.85;29.83;;;6.50;96.10;;;;;;5101435;28;20020;-69
2021/03/29 03:20:13;;;;;;;49.33;29.98;;;6.40;96.40;;;;;;5099687;28;20022;-74
2021/03/29 03:23:15;;;;;;;45.33;28.05;;;6.50;96.00;;;;;;5082743;28;20020;-76
2021/03/29 03:25:50;;;;;;;46.97;27.27;;;6.50;95.90;;;;;;4998237;28;20034;-70
2021/03/29 03:28:21;;;;;;;45.72;27.58;;;6.50;96.00;;;;;;4996934;28;20030;-70
2021/03/29 03:30:53;;;;;;;47.10;27.52;;;6.50;95.90;;;;;;4999564;28;20038;-70
2021/03/29 03:33:21;;;;;;;47.55;27.95;;;6.50;95.80;;;;;;4998711;28;20034;-73
2021/03/29 03:35:49;;;;;;;49.00;28.92;;;6.50;95.70;;;;;;4999085;28;20059;-70
2021/03/29 03:38:31;;;;;;;51.10;29.80;;;6.40;96.10;;;;;;4999480;28;20503;-70
2021/03/29 03:40:59;;;;;;;51.03;29.77;;;6.40;96.10;;;;;;4998316;28;20548;-69
2021/03/29 03:43:32;;;;;;;57.63;32.25;;;6.40;96.50;;;;;;4996807;28;20117;-79
2021/03/29 03:46:07;;;;;;;58.35;34.55;;;6.40;96.20;;;;;;4997330;28;20116;-69
2021/03/29 03:48:34;;;;;;;66.13;36.15;;;6.40;95.90;;;;;;4998044;28;20510;-69
2021/03/29 03:51:01;;;;;;;60.85;35.47;;;6.40;96.30;;;;;;4996275;28;20045;-80
2021/03/29 03:53:29;;;;;;;57.97;32.97;;;6.40;96.00;;;;;;4980471;28;20590;-69
2021/03/29 03:55:57;;;;;;;62.78;32.20;;;6.30;96.00;;;;;;4998551;28;20022;-73
2021/03/29 03:58:28;;;;;;;57.70;33.58;;;6.30;96.10;;;;;;4998418;28;20488;-75
2021/03/29 04:00:58;;;;;;;55.28;30.23;;;6.20;96.00;;;;;;5099581;28;20055;-79
2021/03/29 04:03:25;;;;;;;52.30;30.17;;;6.20;95.90;;;;;;5098475;28;20123;-70
2021/03/29 04:05:51;;;;;;;52.97;30.25;;;6.10;96.20;;;;;;5099912;28;20028;-70
2021/03/29 04:08:17;;;;;;;50.42;29.38;;;6.00;96.50;;;;;;5099008;28;20012;-77
2021/03/29 04:10:53;;;;;;;49.28;29.50;;;6.00;96.50;;;;;;5099755;28;20058;-74
2021/03/29 04:13:28;;;;;;;48.35;28.65;;;6.00;96.50;;;;;;5099791;28;20423;-78
2021/03/29 04:15:54;;;;;;;;;;;6.00;96.40;;;;;;5080850;28;20085;-72
2021/03/29 04:18:20;;;;;;;52.35;28.60;;;6.00;96.50;;;;;;5098148;28;19911;-68
2021/03/29 04:20:46;;;;;;;51.80;29.45;;;5.90;96.40;;;;;;5098179;28;20052;-69
2021/03/29 04:23:13;;;;;;;55.22;30.40;;;5.80;96.70;;;;;;5100455;28;20027;-69
2021/03/29 04:25:39;;;;;;;47.95;28.45;;;5.70;96.80;;;;;;5079334;28;20138;-73
2021/03/29 04:28:06;;;;;;;55.95;26.88;;;5.70;96.80;;;;;;5099974;28;20202;-74
2021/03/29 04:30:32;;;;;;;50.08;27.88;;;5.70;96.90;;;;;;5098397;28;20016;-72
2021/03/29 04:32:58;;;;;;;40.00;24.33;;;5.60;97.20;;;;;;5080780;28;20382;-69
2021/03/29 04:35:24;;;;;;;51.10;30.95;;;5.30;98.00;;;;;;5099403;28;20055;-79
2021/03/29 04:37:52;;;;;;;49.88;32.67;;;5.20;98.20;;;;;;5081422;28;20374;-74
2021/03/29 04:40:25;;;;;;;41.70;22.33;;;5.20;98.20;;;;;;5099065;28;20024;-70
2021/03/29 04:42:52;;;;;;;41.85;24.83;;;5.10;98.50;;;;;;5099292;28;20039;-68
2021/03/29 04:45:19;;;;;;;41.60;24.77;;;5.00;98.60;;;;;;5096893;28;20020;-73
2021/03/29 04:47:45;;;;;;;46.75;26.27;;;4.90;98.70;;;;;;5099287;28;20020;-78
2021/03/29 04:50:13;;;;;;;40.58;25.48;;;4.90;98.70;;;;;;5099076;28;20031;-70
2021/03/29 04:52:40;;;;;;;58.63;36.72;;;5.10;98.50;;;;;;5096639;28;20097;-69
2021/03/29 04:55:07;;;;;;;57.13;28.67;;;5.10;98.30;;;;;;5097223;28;20028;-79
2021/03/29 04:57:33;;;;;;;67.45;38.58;;;5.20;98.40;;;;;;5097715;28;20027;-68
2021/03/29 04:59:59;;;;;;;118.55;71.18;;;5.20;98.60;;;;;;5098349;28;20024;-69
2021/03/29 05:02:25;;;;;;;107.30;62.17;;;5.10;98.30;;;;;;5097236;28;20451;-69
2021/03/29 05:04:51;;;;;;;109.30;59.33;;;5.10;98.40;;;;;;5098932;28;20073;-70
2021/03/29 05:07:16;;;;;;;94.68;50.53;;;5.00;98.70;;;;;;5097779;28;20355;-68
2021/03/29 05:09:43;;;;;;;89.45;48.80;;;5.10;98.60;;;;;;5098141;28;20099;-78
2021/03/29 05:12:13;;;;;;;86.45;46.47;;;5.20;98.50;;;;;;5098378;28;20024;-72
2021/03/29 05:14:40;;;;;;;88.03;44.55;;;5.10;98.40;;;;;;5098107;28;20036;-70
2021/03/29 05:17:07;;;;;;;114.30;57.35;;;5.20;98.20;;;;;;5098239;28;20020;-75
2021/03/29 05:19:34;;;;;;;123.70;60.95;;;5.20;98.20;;;;;;5097660;28;20024;-72
2021/03/29 05:22:01;;;;;;;131.43;66.32;;;5.20;98.20;;;;;;5098199;28;20025;-70
2021/03/29 05:24:27;;;;;;;122.18;59.83;;;5.30;98.10;;;;;;5097201;28;20099;-78
2021/03/29 05:26:53;;;;;;;116.22;54.75;;;5.30;98.20;;;;;;5096829;28;20061;-77
2021/03/29 05:29:20;;;;;;;93.93;49.50;;;5.40;97.70;;;;;;5097258;28;20020;-79
2021/03/29 05:31:46;;;;;;;81.00;44.47;;;5.40;97.70;;;;;;5098678;28;20079;-76
2021/03/29 05:34:14;;;;;;;107.53;57.47;;;5.50;97.50;;;;;;5098636;28;20055;-71
2021/03/29 05:36:41;;;;;;;103.88;55.95;;;5.50;97.70;;;;;;5097171;28;20032;-68
2021/03/29 05:39:10;;;;;;;102.40;52.92;;;5.60;97.50;;;;;;5096927;28;20028;-69
2021/03/29 05:41:40;;;;;;;84.63;46.97;;;5.70;97.40;;;;;;5096683;28;20374;-69
2021/03/29 05:44:10;;;;;;;72.40;40.97;;;5.90;97.30;;;;;;5101616;28;20065;-78
2021/03/29 05:46:40;;;;;;;76.57;38.17;;;5.90;97.00;;;;;;5101073;28;20062;-70
2021/03/29 05:49:07;;;;;;;45.45;27.80;;;6.00;97.00;;;;;;5083585;28;20032;-69
2021/03/29 05:51:39;;;;;;;51.88;31.63;;;6.20;96.30;;;;;;5098869;28;20347;-75
2021/03/29 05:54:08;;;;;;;52.55;31.85;;;6.20;96.50;;;;;;5101009;28;20386;-70
2021/03/29 05:56:36;;;;;;;47.10;29.00;;;6.30;96.40;;;;;;5101122;28;20423;-70
2021/03/29 05:59:26;;;;;;;56.78;33.40;;;6.40;95.20;;;;;;5101376;28;20025;-79
2021/03/29 06:01:56;;;;;;;68.07;39.50;;;6.50;95.80;;;;;;5100237;28;20044;-70
2021/03/29 06:04:45;;;;;;;68.43;41.55;;;6.70;96.40;;;;;;5081463;28;20024;-71
2021/03/29 06:07:18;;;;;;;72.25;42.97;;;6.80;95.80;;;;;;5101860;28;20415;-71
2021/03/29 06:09:48;;;;;;;63.65;40.63;;;6.90;96.00;;;;;;5101278;28;20020;-70
2021/03/29 06:12:15;;;;;;;72.07;42.10;;;7.00;95.90;;;;;;5084069;28;20381;-76
2021/03/29 06:14:44;;;;;;;64.78;39.05;;;7.00;96.20;;;;;;5101002;28;20035;-74
2021/03/29 06:17:11;;;;;;;73.05;46.42;;;7.10;95.90;;;;;;5100584;28;20020;-71
2021/03/29 06:19:37;;;;;;;77.65;47.30;;;7.20;95.30;;;;;;5083323;28;20024;-71
2021/03/29 06:22:06;;;;;;;70.50;42.40;;;7.50;95.80;;;;;;5100750;28;20027;-79
2021/03/29 06:24:53;;;;;;;61.65;41.00;;;7.60;94.70;;;;;;5083383;28;20027;-70
2021/03/29 06:27:21;;;;;;;57.58;37.08;;;7.80;95.10;;;;;;5101965;28;20082;-71
2021/03/29 06:29:47;;;;;;;55.67;35.83;;;8.10;94.10;;;;;;5100725;28;20020;-79
2021/03/29 06:32:20;;;;;;;59.05;39.42;;;8.20;93.20;;;;;;5083839;28;20031;-73
2021/03/29 06:34:47;;;;;;;68.10;42.13;;;8.40;93.50;;;;;;5082618;28;20035;-71
2021/03/29 06:37:18;;;;;;;68.10;44.83;;;8.40;92.70;;;;;;5100101;28;20024;-74
2021/03/29 06:39:44;;;;;;;81.00;55.45;;;8.60;93.60;;;;;;5083775;28;20052;-71
2021/03/29 06:42:10;;;;;;;71.63;47.40;;;8.60;93.60;;;;;;5100419;28;20027;-81
2021/03/29 06:44:37;;;;;;;81.10;51.95;;;8.80;93.00;;;;;;5102554;28;20020;-70
2021/03/29 06:47:33;;;;;;;89.70;56.13;;;9.00;93.00;;;;;;5077635;28;20043;-69
2021/03/29 06:49:58;;;;;;;;;;;9.00;92.10;;;;;;5102072;28;20020;-69
2021/03/29 06:52:28;;;;;;;61.65;38.35;;;9.10;90.30;;;;;;5100342;28;20424;-69
2021/03/29 06:55:15;;;;;;;60.50;39.13;;;9.30;91.20;;;;;;5093286;28;20032;-69
2021/03/29 06:57:41;;;;;;;59.47;38.22;;;9.50;91.10;;;;;;5060752;28;20036;-74
2021/03/29 07:00:14;;;;;;;61.65;38.00;;;9.40;90.70;;;;;;5080403;28;20047;-71
2021/03/29 07:02:47;;;;;;;64.30;38.75;;;9.50;90.50;;;;;;5091065;28;20117;-70
2021/03/29 07:05:15;;;;;;;58.35;38.00;;;9.60;90.60;;;;;;5093681;28;20024;-70
2021/03/29 07:07:45;;;;;;;53.78;34.88;;;9.70;90.70;;;;;;5096406;28;20059;-69
2021/03/29 07:10:12;;;;;;;56.40;37.05;;;9.90;88.70;;;;;;5091722;28;20020;-70
2021/03/29 07:12:40;;;;;;;58.83;38.10;;;10.10;88.50;;;;;;5096522;28;20018;-69
2021/03/29 07:15:11;;;;;;;61.22;36.65;;;10.20;88.50;;;;;;5095676;28;20024;-69
2021/03/29 07:17:42;;;;;;;55.60;36.28;;;10.30;85.50;;;;;;5097148;28;20030;-69
2021/03/29 07:20:30;;;;;;;53.22;38.00;;;10.40;87.00;;;;;;5098043;28;20016;-73
2021/03/29 07:22:56;;;;;;;61.03;42.88;;;10.60;86.40;;;;;;5098308;28;20466;-78
2021/03/29 07:25:28;;;;;;;63.90;40.72;;;10.80;85.80;;;;;;5100665;28;20028;-70
2021/03/29 07:27:59;;;;;;;61.70;40.10;;;10.80;86.70;;;;;;5100993;28;20024;-78
2021/03/29 07:30:47;;;;;;;53.28;31.17;;;10.80;86.00;;;;;;5102897;28;20448;-78
2021/03/29 07:33:14;;;;;;;53.58;30.60;;;11.10;84.80;;;;;;5102827;28;20057;-77
2021/03/29 07:35:48;;;;;;;49.95;30.75;;;11.20;80.40;;;;;;5097425;28;20028;-78
2021/03/29 07:38:15;;;;;;;40.58;24.90;;;11.40;83.40;;;;;;5101653;28;20032;-71
2021/03/29 07:40:44;;;;;;;45.65;27.25;;;11.60;79.00;;;;;;5094947;28;20052;-70
2021/03/29 07:43:13;;;;;;;47.67;29.30;;;11.70;80.40;;;;;;5096813;28;20024;-71
2021/03/29 07:45:40;;;;;;;45.55;25.95;;;11.90;83.40;;;;;;5098873;28;20111;-69
2021/03/29 07:48:07;;;;;;;36.92;22.55;;;11.90;80.70;;;;;;5100390;28;20028;-79
2021/03/29 07:50:33;;;;;;;37.63;24.17;;;12.20;79.10;;;;;;5099808;28;20020;-73
2021/03/29 07:53:17;;;;;;;41.88;22.05;;;12.40;77.10;;;;;;5080528;28;20024;-71
2021/03/29 07:55:49;;;;;;;31.30;21.35;;;12.50;77.80;;;;;;5082513;28;20451;-70
2021/03/29 07:58:22;;;;;;;33.97;20.42;;;12.70;74.70;;;;;;5092450;28;20059;-70
2021/03/29 08:00:59;;;;;;;38.00;19.88;;;12.80;70.70;;;;;;5095261;28;20020;-70
2021/03/29 08:03:25;;;;;;;33.83;19.88;;;13.00;62.30;;;;;;5094129;28;20048;-70
2021/03/29 08:05:52;;;;;;;32.92;19.33;;;13.10;62.30;;;;;;5093643;28;20028;-70
2021/03/29 08:08:27;;;;;;;33.15;18.63;;;13.40;68.40;;;;;;5094466;28;20543;-70
2021/03/29 08:11:14;;;;;;;28.38;16.75;;;13.60;67.60;;;;;;5091569;28;20016;-71
2021/03/29 08:13:53;;;;;;;35.88;18.48;;;13.80;62.40;;;;;;5093181;28;20036;-72
2021/03/29 08:16:22;;;;;;;21.65;13.70;;;13.80;60.40;;;;;;5093649;28;20023;-76
2021/03/29 08:19:19;;;;;;;24.83;13.73;;;13.80;57.30;;;;;;5099038;28;20021;-74
2021/03/29 08:21:52;;;;;;;20.40;12.32;;;14.00;58.40;;;;;;5080338;28;20024;-72
2021/03/29 08:24:26;;;;;;;21.00;10.63;;;14.10;56.30;;;;;;5082637;28;20020;-72
2021/03/29 08:26:54;;;;;;;21.58;11.15;;;14.50;58.70;;;;;;5098066;28;20027;-75
2021/03/29 08:29:32;;;;;;;16.63;8.73;;;14.40;57.90;;;;;;5093283;28;20024;-71
2021/03/29 08:32:09;;;;;;;15.38;7.85;;;14.50;53.70;;;;;;5093299;28;20028;-70
2021/03/29 08:34:53;;;;;;;19.55;11.48;;;14.60;52.50;;;;;;5091991;28;20028;-72
2021/03/29 08:37:24;;;;;;;20.48;12.00;;;14.70;52.20;;;;;;5089350;28;20031;-70
2021/03/29 08:39:51;;;;;;;17.45;10.23;;;14.70;51.70;;;;;;5072217;28;20017;-69
2021/03/29 08:42:20;;;;;;;20.80;10.63;;;15.20;57.00;;;;;;5072049;28;20473;-69
2021/03/29 08:44:48;;;;;;;19.50;10.32;;;15.10;53.20;;;;;;5071987;28;20017;-70
2021/03/29 08:47:24;;;;;;;17.80;10.38;;;15.70;57.10;;;;;;5079087;28;20024;-80
2021/03/29 08:49:53;;;;;;;18.73;10.70;;;16.10;53.70;;;;;;5067440;28;20025;-81
2021/03/29 08:52:20;;;;;;;18.95;10.60;;;16.30;51.00;;;;;;5083298;28;20021;-73
2021/03/29 08:54:51;;;;;;;21.77;8.75;;;16.80;55.60;;;;;;5084306;28;20028;-73
2021/03/29 08:57:20;;;;;;;17.75;9.02;;;16.70;51.70;;;;;;5092571;28;20046;-69
2021/03/29 08:59:51;;;;;;;16.15;9.05;;;16.30;47.30;;;;;;5090828;28;20024;-69
2021/03/29 09:02:18;;;;;;;17.50;8.70;;;16.30;49.00;;;;;;5096022;28;20051;-69
2021/03/29 09:04:58;;;;;;;15.55;8.52;;;16.30;50.00;;;;;;5102671;28;20016;-73
2021/03/29 09:07:31;;;;;;;17.98;8.68;;;16.30;48.90;;;;;;5104083;28;20041;-78
2021/03/29 09:09:58;;;;;;;16.45;8.55;;;16.90;49.60;;;;;;5101593;28;20465;-70
2021/03/29 09:12:33;;;;;;;13.52;8.10;;;17.10;48.20;;;;;;5100259;28;20024;-75
2021/03/29 09:15:00;;;;;;;12.40;7.88;;;17.70;51.00;;;;;;5102306;28;20035;-79
2021/03/29 09:17:32;;;;;;;12.57;8.05;;;17.60;50.50;;;;;;5098285;28;20035;-79
2021/03/29 09:20:01;;;;;;;12.38;8.07;;;17.90;49.10;;;;;;5100910;28;20490;-79
2021/03/29 09:22:37;;;;;;;11.70;7.90;;;18.10;50.00;;;;;;5101274;28;20024;-69
2021/03/29 09:25:05;;;;;;;21.95;12.77;;;18.20;45.00;;;;;;5101729;28;20028;-70
2021/03/29 09:27:42;;;;;;;12.52;7.57;;;17.90;47.70;;;;;;5102472;28;20020;-79
2021/03/29 09:30:11;;;;;;;12.98;7.03;;;18.30;51.70;;;;;;5104470;28;20060;-80
2021/03/29 09:32:43;;;;;;;12.93;7.20;;;18.50;47.30;;;;;;5099357;28;20030;-70
2021/03/29 09:35:10;;;;;;;11.73;6.40;;;18.90;45.00;;;;;;5101911;28;20012;-81
2021/03/29 09:37:45;;;;;;;12.52;6.70;;;18.40;43.90;;;;;;5101173;28;20042;-70
2021/03/29 09:40:12;;;;;;;14.35;7.35;;;18.20;44.70;;;;;;5104055;28;20030;-73
2021/03/29 09:42:43;;;;;;;12.00;6.47;;;18.10;48.20;;;;;;5102173;28;20534;-81
2021/03/29 09:45:12;;;;;;;23.27;14.00;;;18.00;44.80;;;;;;5096985;28;20024;-70
2021/03/29 09:47:38;;;;;;;30.67;16.60;;;17.80;46.00;;;;;;5094572;28;20088;-69
2021/03/29 09:50:10;;;;;;;13.43;6.43;;;17.90;46.20;;;;;;5099689;28;20076;-81
2021/03/29 09:52:42;;;;;;;14.65;7.63;;;17.90;45.20;;;;;;5106915;28;20031;-81
2021/03/29 09:55:11;;;;;;;12.18;6.88;;;18.30;45.40;;;;;;5099141;28;20069;-81
2021/03/29 09:57:43;;;;;;;15.77;7.75;;;18.40;44.80;;;;;;5108118;28;20012;-81
2021/03/29 10:00:20;;;;;;;9.75;5.10;;;18.60;45.00;;;;;;5102053;28;20082;-82
2021/03/29 10:03:00;;;;;;;9.13;5.70;;;18.10;43.20;;;;;;5102723;28;20112;-73
2021/03/29 10:05:34;;;;;;;11.23;4.90;;;18.20;42.30;;;;;;5104188;28;20024;-79
2021/03/29 10:08:00;;;;;;;9.48;5.25;;;18.40;42.40;;;;;;5102333;28;20161;-82
2021/03/29 10:10:31;;;;;;;10.70;5.47;;;18.60;44.60;;;;;;5103131;28;20028;-79
2021/03/29 10:13:17;;;;;;;13.82;6.82;;;18.60;44.80;;;;;;5106281;28;20072;-82
2021/03/29 10:15:43;;;;;;;21.02;11.85;;;19.00;44.30;;;;;;5100270;28;20085;-82
2021/03/29 10:18:13;;;;;;;8.38;5.10;;;18.90;44.00;;;;;;5097719;28;20097;-82
2021/03/29 10:20:44;;;;;;;7.95;4.90;;;18.70;44.00;;;;;;5101217;28;20016;-81
2021/03/29 10:23:30;;;;;;;13.13;5.82;;;19.90;44.10;;;;;;5098879;28;20370;-82
2021/03/29 10:26:20;;;;;;;11.57;5.10;;;20.30;43.30;;;;;;5097902;28;20016;-81
2021/03/29 10:28:55;;;;;;;10.82;5.70;;;20.30;44.10;;;;;;5101321;28;20095;-82
2021/03/29 10:31:22;;;;;;;7.35;4.72;;;19.60;41.10;;;;;;5085641;28;20028;-82
2021/03/29 10:33:48;;;;;;;9.27;4.40;;;20.10;43.60;;;;;;5103008;28;20020;-82
2021/03/29 10:36:15;;;;;;;9.15;4.70;;;20.10;42.10;;;;;;5103855;28;20020;-79
2021/03/29 10:38:43;;;;;;;19.75;9.82;;;20.40;43.10;;;;;;5103158;28;20012;-70
2021/03/29 10:41:09;;;;;;;10.27;5.60;;;20.40;44.00;;;;;;5084492;28;20031;-82
2021/03/29 10:43:35;;;;;;;8.88;4.68;;;20.40;44.00;;;;;;5100634;28;20012;-81
2021/03/29 10:46:02;;;;;;;8.20;4.10;;;20.40;44.00;;;;;;5105172;28;20018;-72
2021/03/29 10:48:28;;;;;;;8.95;4.53;;;20.50;45.40;;;;;;5086562;28;20027;-81
2021/03/29 10:50:54;;;;;;;8.35;4.50;;;20.80;41.60;;;;;;5083185;28;20025;-82
2021/03/29 10:53:20;;;;;;;7.50;4.50;;;20.70;44.10;;;;;;5103885;28;20024;-81
2021/03/29 10:55:46;;;;;;;8.32;4.88;;;21.40;45.20;;;;;;5102695;28;20016;-82
2021/03/29 10:58:12;;;;;;;9.07;4.97;;;21.50;41.50;;;;;;5085183;28;20099;-71
2021/03/29 11:00:38;;;;;;;12.60;6.80;;;21.60;42.30;;;;;;5103842;28;20058;-82
2021/03/29 11:03:04;;;;;;;11.80;7.90;;;20.50;39.10;;;;;;5103402;28;20111;-76
2021/03/29 11:05:31;;;;;;;9.52;5.90;;;20.50;40.70;;;;;;5103058;28;20035;-81
2021/03/29 11:07:57;;;;;;;10.77;6.43;;;20.80;43.70;;;;;;5104556;28;20027;-81
2021/03/29 11:10:22;;;;;;;12.85;6.90;;;20.60;43.70;;;;;;5086884;28;20028;-81
2021/03/29 11:12:48;;;;;;;10.00;6.20;;;20.90;44.80;;;;;;5087962;28;20020;-81
2021/03/29 11:15:15;;;;;;;12.05;8.43;;;21.40;43.70;;;;;;5087563;28;20008;-72
2021/03/29 11:17:41;;;;;;;11.65;6.40;;;20.00;39.80;;;;;;5102332;28;20067;-71
2021/03/29 11:20:07;;;;;;;9.65;6.22;;;20.60;44.30;;;;;;5095448;28;20027;-77
2021/03/29 11:22:34;;;;;;;10.90;7.80;;;21.30;42.50;;;;;;5096689;28;20043;-71
2021/03/29 11:25:00;;;;;;;10.60;6.97;;;21.00;40.50;;;;;;5100390;28;20035;-74
2021/03/29 11:27:25;;;;;;;12.40;7.95;;;21.20;42.20;;;;;;5102880;28;20482;-80
2021/03/29 11:29:51;;;;;;;9.05;6.80;;;20.70;41.70;;;;;;5102721;28;20020;-80
2021/03/29 11:32:18;;;;;;;11.15;6.65;;;20.60;39.40;;;;;;5100462;28;20482;-71
2021/03/29 11:34:44;;;;;;;9.75;6.80;;;21.10;41.90;;;;;;5105748;28;20051;-79
2021/03/29 11:37:10;;;;;;;9.05;6.20;;;20.90;41.40;;;;;;5107513;28;20020;-71
2021/03/29 11:39:37;;;;;;;10.77;6.75;;;20.80;41.10;;;;;;5088169;28;20378;-70
2021/03/29 11:42:04;;;;;;;10.85;6.95;;;21.20;42.30;;;;;;5104479;28;20056;-71
2021/03/29 11:44:29;;;;;;;10.52;6.75;;;21.50;42.40;;;;;;5087868;28;20016;-79
2021/03/29 11:46:57;;;;;;;9.20;6.63;;;21.80;39.40;;;;;;5105004;28;20024;-81
2021/03/29 11:49:22;;;;;;;12.23;6.97;;;21.90;43.30;;;;;;5082106;28;20520;-71
2021/03/29 11:51:48;;;;;;;12.63;7.50;;;22.20;44.40;;;;;;5100290;28;20036;-82
2021/03/29 11:54:14;;;;;;;16.77;7.60;;;21.30;40.80;;;;;;5106849;28;20434;-71
2021/03/29 11:56:40;;;;;;;12.18;7.85;;;21.20;41.50;;;;;;5102786;28;20052;-76
2021/03/29 11:59:06;;;;;;;9.82;7.43;;;21.00;40.80;;;;;;5101618;28;20035;-82
2021/03/29 12:09:17;;;;;;;14.52;8.38;;;20.80;44.20;;;;;;5103833;28;20024;-82
2021/03/29 12:11:51;;;;;;;11.63;6.97;;;20.60;42.00;;;;;;5106700;28;20077;-71
2021/03/29 12:14:17;;;;;;;10.65;6.35;;;20.50;40.70;;;;;;5106444;28;20024;-71
2021/03/29 12:16:46;;;;;;;10.85;6.00;;;21.20;44.10;;;;;;5105792;28;20027;-71
2021/03/29 12:19:14;;;;;;;9.27;6.07;;;21.90;40.20;;;;;;5105910;28;20088;-76
2021/03/29 12:21:42;;;;;;;9.30;5.75;;;22.30;42.90;;;;;;5104570;28;20136;-82
2021/03/29 12:24:13;;;;;;;10.45;7.00;;;22.40;40.40;;;;;;5105508;28;20001;-82
2021/03/29 12:26:41;;;;;;;10.05;5.50;;;21.70;41.20;;;;;;5104744;28;20055;-81
2021/03/29 12:29:11;;;;;;;9.43;6.03;;;21.70;42.90;;;;;;5101419;28;20501;-70
2021/03/29 12:31:39;;;;;;;9.57;5.90;;;21.70;41.40;;;;;;5099626;28;20028;-70
2021/03/29 12:34:05;;;;;;;10.13;4.80;;;21.60;43.20;;;;;;5103849;28;20022;-82
2021/03/29 12:36:42;;;;;;;8.07;4.82;;;22.10;42.10;;;;;;5103178;28;20031;-70
2021/03/29 12:39:18;;;;;;;6.88;4.60;;;22.10;42.10;;;;;;5087433;28;20049;-71
2021/03/29 12:41:50;;;;;;;6.72;4.47;;;22.20;43.10;;;;;;5103469;28;20055;-71
2021/03/29 12:44:17;;;;;;;8.05;4.75;;;22.70;40.80;;;;;;5105469;28;20056;-78
2021/03/29 12:46:48;;;;;;;6.65;4.72;;;22.20;36.90;;;;;;5104121;28;20493;-71
2021/03/29 12:49:15;;;;;;;11.60;7.65;;;22.90;41.40;;;;;;5104314;28;20024;-81
2021/03/29 12:51:43;;;;;;;13.50;6.93;;;22.30;37.90;;;;;;5102846;28;20058;-78
2021/03/29 12:54:10;;;;;;;8.57;4.63;;;22.50;39.60;;;;;;5085267;28;20008;-75
2021/03/29 12:56:37;;;;;;;10.75;6.97;;;21.70;40.50;;;;;;5102676;28;20097;-71
2021/03/29 12:59:06;;;;;;;9.77;4.70;;;21.00;41.70;;;;;;5095868;28;20027;-72